createdAt,value
2022-08-25T00:02:21.095Z,38.66
2022-08-25T00:04:53.889Z,38.18
2022-08-25T00:07:21.816Z,38.47
2022-08-25T00:09:52.287Z,38.60
2022-08-25T00:12:20.231Z,38.51
2022-08-25T00:14:49.428Z,38.69
2022-08-25T00:17:17.598Z,38.71
2022-08-25T00:19:46.106Z,38.98
2022-08-25T00:22:13.937Z,38.79
2022-08-25T00:24:42.222Z,39.23
2022-08-25T00:27:12.610Z,39.26
2022-08-25T00:29:40.451Z,39.41
2022-08-25T00:32:09.660Z,39.48
2022-08-25T00:34:39.465Z,39.24
2022-08-25T00:37:09.388Z,39.21
2022-08-25T00:39:39.045Z,39.60
2022-08-25T00:42:16.180Z,39.33
2022-08-25T00:44:58.270Z,39.30
2022-08-25T00:47:29.654Z,39.77
2022-08-25T00:50:02.794Z,39.89
2022-08-25T00:52:37.298Z,39.66
2022-08-25T00:55:14.606Z,39.49
2022-08-25T00:57:49.794Z,39.71
2022-08-25T01:00:28.858Z,39.89
2022-08-25T01:02:58.667Z,39.75
2022-08-25T01:05:29.662Z,39.68
2022-08-25T01:08:02.231Z,39.92
2022-08-25T01:10:34.221Z,39.66
2022-08-25T01:13:16.414Z,40.13
2022-08-25T01:15:45.950Z,40.31
2022-08-25T01:18:15.846Z,40.28
2022-08-25T01:20:43.841Z,39.93
2022-08-25T01:23:14.642Z,40.05
2022-08-25T01:25:51.703Z,40.20
2022-08-25T01:28:21.176Z,40.03
2022-08-25T01:30:50.598Z,40.13
2022-08-25T01:33:20.038Z,40.20
2022-08-25T01:35:48.660Z,40.34
2022-08-25T01:38:19.021Z,40.50
2022-08-25T01:40:47.701Z,40.60
2022-08-25T01:43:31.452Z,40.58
2022-08-25T01:45:59.379Z,40.68
2022-08-25T01:48:27.472Z,40.76
2022-08-25T01:50:56.893Z,40.80
2022-08-25T01:53:29.945Z,40.87
2022-08-25T01:56:11.452Z,40.94
2022-08-25T01:58:43.994Z,41.16
2022-08-25T02:01:17.881Z,40.89
2022-08-25T02:03:50.210Z,41.22
2022-08-25T02:06:28.694Z,40.97
2022-08-25T02:09:05.627Z,40.91
2022-08-25T02:11:35.891Z,41.20
2022-08-25T02:14:04.806Z,41.07
2022-08-25T02:16:37.106Z,41.28
2022-08-25T02:19:09.099Z,41.49
2022-08-25T02:21:37.173Z,41.50
2022-08-25T02:24:07.847Z,41.62
2022-08-25T02:26:37.330Z,41.45
2022-08-25T02:29:07.438Z,41.56
2022-08-25T02:31:36.856Z,41.94
2022-08-25T02:34:06.453Z,41.98
2022-08-25T02:36:34.861Z,41.69
2022-08-25T02:39:04.538Z,41.97
2022-08-25T02:41:35.094Z,42.41
2022-08-25T02:44:06.961Z,42.21
2022-08-25T02:46:35.963Z,42.52
2022-08-25T02:49:04.687Z,42.53
2022-08-25T02:51:34.626Z,42.76
2022-08-25T02:54:05.130Z,42.67
2022-08-25T02:56:34.677Z,42.73
2022-08-25T02:59:03.106Z,42.80
2022-08-25T03:01:32.736Z,42.93
2022-08-25T03:04:02.106Z,42.69
2022-08-25T03:06:30.685Z,42.83
2022-08-25T03:08:58.797Z,42.79
2022-08-25T03:11:26.730Z,42.89
2022-08-25T03:13:56.476Z,42.77
2022-08-25T03:16:27.855Z,43.09
2022-08-25T03:18:56.349Z,42.87
2022-08-25T03:21:26.481Z,43.36
2022-08-25T03:23:54.625Z,43.34
2022-08-25T03:26:41.468Z,43.41
2022-08-25T03:29:11.309Z,43.66
2022-08-25T03:31:39.645Z,43.79
2022-08-25T03:34:07.894Z,44.01
2022-08-25T03:36:35.922Z,44.28
2022-08-25T03:39:04.974Z,44.13
2022-08-25T03:41:32.942Z,44.02
2022-08-25T03:44:03.958Z,44.52
2022-08-25T03:46:37.808Z,44.36
2022-08-25T03:49:09.468Z,44.04
2022-08-25T03:51:42.936Z,44.33
2022-08-25T03:54:11.617Z,44.21
2022-08-25T03:56:40.383Z,44.53
2022-08-25T03:59:09.935Z,44.39
2022-08-25T04:01:42.063Z,44.68
2022-08-25T04:04:12.599Z,44.58
2022-08-25T04:06:42.108Z,44.51
2022-08-25T04:09:11.498Z,45.02
2022-08-25T04:11:40.460Z,45.22
2022-08-25T04:14:13.041Z,45.12
2022-08-25T04:16:46.090Z,45.53
2022-08-25T04:19:14.268Z,45.89
2022-08-25T04:21:42.893Z,45.80
2022-08-25T04:24:13.097Z,45.66
2022-08-25T04:26:45.301Z,46.07
2022-08-25T04:29:18.487Z,46.48
2022-08-25T04:31:52.511Z,46.57
2022-08-25T04:34:29.876Z,46.38
2022-08-25T04:37:01.581Z,46.46
2022-08-25T04:39:30.222Z,46.61
2022-08-25T04:42:00.400Z,46.62
2022-08-25T04:44:32.931Z,46.82
2022-08-25T04:47:02.357Z,46.91
2022-08-25T04:49:33.566Z,47.15
2022-08-25T04:52:01.436Z,47.03
2022-08-25T04:54:29.514Z,47.16
2022-08-25T04:57:05.273Z,47.31
2022-08-25T04:59:33.646Z,47.39
2022-08-25T05:02:05.099Z,47.44
2022-08-25T05:04:35.235Z,47.61
2022-08-25T05:07:04.614Z,47.68
2022-08-25T05:09:33.166Z,47.58
2022-08-25T05:12:03.083Z,47.46
2022-08-25T05:14:31.548Z,47.43
2022-08-25T05:17:00.720Z,47.35
2022-08-25T05:19:30.158Z,47.00
2022-08-25T05:21:58.316Z,46.86
2022-08-25T05:24:26.869Z,46.49
2022-08-25T05:26:54.916Z,46.43
2022-08-25T05:29:23.934Z,46.19
2022-08-25T05:31:52.028Z,45.87
2022-08-25T05:34:20.526Z,45.67
2022-08-25T05:36:49.908Z,45.25
2022-08-25T05:39:18.281Z,44.97
2022-08-25T05:41:46.175Z,44.58
2022-08-25T05:44:16.937Z,44.88
2022-08-25T05:46:49.237Z,44.79
2022-08-25T05:49:17.207Z,44.40
2022-08-25T05:51:45.257Z,44.30
2022-08-25T05:54:14.553Z,44.76
2022-08-25T05:56:42.435Z,45.07
2022-08-25T05:59:10.632Z,44.47
2022-08-25T06:01:57.196Z,44.52
2022-08-25T06:04:25.457Z,44.62
2022-08-25T06:06:54.836Z,43.96
2022-08-25T06:09:24.443Z,43.40
2022-08-25T06:11:54.989Z,43.78
2022-08-25T06:14:23.901Z,43.66
2022-08-25T06:16:52.231Z,43.10
2022-08-25T06:19:21.204Z,43.11
2022-08-25T06:21:49.770Z,43.92
2022-08-25T06:24:17.607Z,42.92
2022-08-25T06:26:46.890Z,42.54
2022-08-25T06:29:14.907Z,42.87
2022-08-25T06:31:43.689Z,42.43
2022-08-25T06:34:12.573Z,42.25
2022-08-25T06:36:40.796Z,42.35
2022-08-25T06:39:10.621Z,42.36
2022-08-25T06:41:39.138Z,41.43
2022-08-25T06:44:08.479Z,41.34
2022-08-25T06:46:37.173Z,41.13
2022-08-25T06:49:06.698Z,41.23
2022-08-25T06:51:38.010Z,41.25
2022-08-25T06:54:10.035Z,40.56
2022-08-25T06:56:40.760Z,40.22
2022-08-25T06:59:11.107Z,40.19
2022-08-25T07:01:39.902Z,40.18
2022-08-25T07:04:12.983Z,40.01
2022-08-25T07:06:41.725Z,38.88
2022-08-25T07:09:11.670Z,38.97
2022-08-25T07:11:41.601Z,39.03
2022-08-25T07:14:14.188Z,38.63
2022-08-25T07:16:48.512Z,38.56
2022-08-25T07:19:20.917Z,38.78
2022-08-25T07:21:53.090Z,38.71
2022-08-25T07:24:22.147Z,38.69
2022-08-25T07:26:51.875Z,38.72
2022-08-25T07:29:32.204Z,39.39
2022-08-25T07:32:01.571Z,38.52
2022-08-25T07:34:52.405Z,38.21
2022-08-25T07:40:14.424Z,37.09
2022-08-25T07:42:42.769Z,37.52
2022-08-25T07:45:14.209Z,37.59
2022-08-25T07:47:45.625Z,37.42
2022-08-25T07:50:14.613Z,36.76
2022-08-25T07:52:42.679Z,36.70
2022-08-25T07:55:12.332Z,36.51
2022-08-25T07:57:48.928Z,36.62
2022-08-25T08:00:27.540Z,36.13
2022-08-25T08:02:56.261Z,36.53
2022-08-25T08:05:25.895Z,35.30
2022-08-25T08:07:55.405Z,34.88
2022-08-25T08:13:18.068Z,33.80
2022-08-25T08:15:48.263Z,33.83
2022-08-25T08:18:17.010Z,34.67
2022-08-25T08:20:49.778Z,33.25
2022-08-25T08:23:18.487Z,33.31
2022-08-25T08:25:48.007Z,33.56
2022-08-25T08:28:15.894Z,33.28
2022-08-25T08:30:53.621Z,33.97
2022-08-25T08:33:26.194Z,33.67
2022-08-25T08:35:59.160Z,34.55
2022-08-25T08:38:28.947Z,33.44
2022-08-25T08:41:33.930Z,33.66
2022-08-25T08:44:26.118Z,34.03
2022-08-25T08:47:08.961Z,33.27
2022-08-25T08:49:52.366Z,33.67
2022-08-25T08:52:36.387Z,33.09
2022-08-25T08:55:20.192Z,33.49
2022-08-25T08:57:54.336Z,33.21
2022-08-25T09:00:23.453Z,31.87
2022-08-25T09:03:00.266Z,32.26
2022-08-25T09:05:46.688Z,32.13
2022-08-25T09:08:20.505Z,32.90
2022-08-25T09:11:01.211Z,32.36
2022-08-25T09:13:49.671Z,31.29
2022-08-25T09:16:48.381Z,31.37
2022-08-25T09:19:45.069Z,31.71
2022-08-25T09:22:36.867Z,31.52
2022-08-25T09:25:29.591Z,31.20
2022-08-25T09:28:20.095Z,31.42
2022-08-25T09:30:59.253Z,30.44
2022-08-25T09:33:31.518Z,30.30
2022-08-25T09:36:06.446Z,31.06
2022-08-25T09:38:38.710Z,30.41
2022-08-25T09:41:08.314Z,30.11
2022-08-25T09:43:41.672Z,30.12
2022-08-25T09:46:14.530Z,29.84
2022-08-25T09:48:56.092Z,28.53
2022-08-25T09:51:42.529Z,28.93
2022-08-25T09:54:25.587Z,29.23
2022-08-25T09:57:02.131Z,28.36
2022-08-25T09:59:35.978Z,28.05
2022-08-25T10:02:23.863Z,27.92
2022-08-25T10:04:52.997Z,28.17
2022-08-25T10:07:28.000Z,27.63
2022-08-25T10:10:01.620Z,27.75
2022-08-25T10:12:42.385Z,27.54
2022-08-25T10:15:29.768Z,26.55
2022-08-25T10:18:23.427Z,26.63
2022-08-25T10:21:09.426Z,26.26
2022-08-25T10:23:44.969Z,27.00
2022-08-25T10:26:33.033Z,26.07
2022-08-25T10:29:22.519Z,25.85
2022-08-25T10:31:59.372Z,25.79
2022-08-25T10:34:46.247Z,25.72
2022-08-25T10:37:37.868Z,25.66
2022-08-25T10:40:21.107Z,25.02
2022-08-25T10:43:07.585Z,24.22
2022-08-25T10:45:45.427Z,24.93
2022-08-25T10:49:10.823Z,24.85
2022-08-25T10:51:56.021Z,24.96
2022-08-25T10:54:42.132Z,24.76
2022-08-25T10:57:22.683Z,25.57
2022-08-25T11:00:07.943Z,24.27
2022-08-25T11:03:20.806Z,25.22
2022-08-25T11:05:58.720Z,24.65
2022-08-25T11:08:37.680Z,25.57
2022-08-25T11:11:13.628Z,24.26
2022-08-25T11:13:50.486Z,23.96
2022-08-25T11:16:33.959Z,24.77
2022-08-25T11:19:14.356Z,24.52
2022-08-25T11:21:52.812Z,24.69
2022-08-25T11:24:46.998Z,24.00
2022-08-25T11:27:24.376Z,23.34
2022-08-25T11:30:06.074Z,23.33
2022-08-25T11:32:39.192Z,22.78
2022-08-25T11:35:13.346Z,22.56
2022-08-25T11:38:00.219Z,22.12
2022-08-25T11:40:55.586Z,22.33
2022-08-25T11:43:49.005Z,22.16
2022-08-25T11:46:39.590Z,22.04
2022-08-25T11:49:49.001Z,22.52
2022-08-25T11:52:53.903Z,22.33
2022-08-25T11:55:28.402Z,22.41
2022-08-25T11:58:32.790Z,22.51
2022-08-25T12:01:03.690Z,23.14
2022-08-25T12:04:12.367Z,22.74
2022-08-25T12:07:23.859Z,22.80
2022-08-25T12:10:20.918Z,21.75
2022-08-25T12:13:04.958Z,21.74
2022-08-25T12:16:00.804Z,21.38
2022-08-25T12:18:45.794Z,21.42
2022-08-25T12:21:31.855Z,21.99
2022-08-25T12:24:47.985Z,20.94
2022-08-25T12:27:33.894Z,21.66
2022-08-25T12:30:20.830Z,21.70
2022-08-25T12:33:11.957Z,21.36
2022-08-25T12:35:56.912Z,21.52
2022-08-25T12:38:35.012Z,22.07
2022-08-25T12:41:13.206Z,22.30
2022-08-25T12:43:45.290Z,22.57
2022-08-25T12:46:39.569Z,22.58
2022-08-25T12:49:33.089Z,22.97
2022-08-25T12:52:07.003Z,22.70
2022-08-25T12:54:48.858Z,21.78
2022-08-25T12:57:43.195Z,21.40
2022-08-25T13:00:21.237Z,21.09
2022-08-25T13:03:22.102Z,20.00
2022-08-25T13:06:32.776Z,20.97
2022-08-25T13:10:04.446Z,22.02
2022-08-25T13:12:44.873Z,21.64
2022-08-25T13:15:15.511Z,22.07
2022-08-25T13:17:43.766Z,21.88
2022-08-25T13:20:19.871Z,21.74
2022-08-25T13:22:57.215Z,21.71
2022-08-25T13:25:32.138Z,21.30
2022-08-25T13:28:05.790Z,22.01
2022-08-25T13:30:37.007Z,21.15
2022-08-25T13:33:20.216Z,20.05
2022-08-25T13:36:11.932Z,20.96
2022-08-25T13:38:41.148Z,21.34
2022-08-25T13:41:20.543Z,21.15
2022-08-25T13:43:51.612Z,21.31
2022-08-25T13:46:23.060Z,21.33
2022-08-25T13:49:02.592Z,20.97
2022-08-25T13:51:32.078Z,21.85
2022-08-25T13:54:06.082Z,21.50
2022-08-25T13:56:41.096Z,21.84
2022-08-25T13:59:26.111Z,21.60
2022-08-25T14:01:56.142Z,21.34
2022-08-25T14:04:32.808Z,22.08
2022-08-25T14:07:27.190Z,21.65
2022-08-25T14:10:09.837Z,21.46
2022-08-25T14:12:44.931Z,21.14
2022-08-25T14:15:29.555Z,21.19
2022-08-25T14:18:05.899Z,20.63
2022-08-25T14:20:37.168Z,20.72
2022-08-25T14:23:10.153Z,20.84
2022-08-25T14:25:40.785Z,20.95
2022-08-25T14:28:15.119Z,21.00
2022-08-25T14:30:51.795Z,21.13
2022-08-25T14:33:24.615Z,21.12
2022-08-25T14:35:55.036Z,21.44
2022-08-25T14:38:24.354Z,20.66
2022-08-25T14:40:53.834Z,20.91
2022-08-25T14:43:24.055Z,20.61
2022-08-25T14:46:09.904Z,21.59
2022-08-25T14:48:46.701Z,21.90
2022-08-25T14:51:17.149Z,21.78
2022-08-25T14:53:48.338Z,22.02
2022-08-25T14:56:16.738Z,21.91
2022-08-25T14:58:48.253Z,21.71
2022-08-25T15:01:29.046Z,22.04
2022-08-25T15:04:04.901Z,21.33
2022-08-25T15:06:35.627Z,21.05
2022-08-25T15:09:13.599Z,20.56
2022-08-25T15:11:47.232Z,21.28
2022-08-25T15:14:28.570Z,20.98
2022-08-25T15:16:58.703Z,20.51
2022-08-25T15:19:27.506Z,20.55
2022-08-25T15:21:59.337Z,20.75
2022-08-25T15:24:28.708Z,21.38
2022-08-25T15:26:59.800Z,20.90
2022-08-25T15:29:31.493Z,20.65
2022-08-25T15:32:05.858Z,21.29
2022-08-25T15:34:35.434Z,21.12
2022-08-25T15:37:10.082Z,21.74
2022-08-25T15:39:40.406Z,21.16
2022-08-25T15:42:12.115Z,21.62
2022-08-25T15:44:40.612Z,21.83
2022-08-25T15:47:12.618Z,21.79
2022-08-25T15:49:41.056Z,23.05
2022-08-25T15:52:10.030Z,22.68
2022-08-25T15:54:38.038Z,22.63
2022-08-25T15:57:08.776Z,22.75
2022-08-25T15:59:40.993Z,22.74
2022-08-25T16:02:15.291Z,23.65
2022-08-25T16:04:43.711Z,23.29
2022-08-25T16:07:13.227Z,23.81
2022-08-25T16:09:41.861Z,24.34
2022-08-25T16:12:12.931Z,23.71
2022-08-25T16:14:41.181Z,23.81
2022-08-25T16:17:10.561Z,23.82
2022-08-25T16:19:38.551Z,23.87
2022-08-25T16:22:09.003Z,23.71
2022-08-25T16:24:40.355Z,24.16
2022-08-25T16:27:12.014Z,24.11
2022-08-25T16:29:43.017Z,24.23
2022-08-25T16:32:14.618Z,24.04
2022-08-25T16:34:44.434Z,24.09
2022-08-25T16:37:13.543Z,24.13
2022-08-25T16:39:45.540Z,25.17
2022-08-25T16:42:14.375Z,25.21
2022-08-25T16:44:42.386Z,24.60
2022-08-25T16:47:14.271Z,25.22
2022-08-25T16:49:47.857Z,25.07
2022-08-25T16:52:34.536Z,25.23
2022-08-25T16:55:16.137Z,25.37
2022-08-25T16:57:47.640Z,24.88
2022-08-25T17:00:19.254Z,25.25
2022-08-25T17:02:51.991Z,25.42
2022-08-25T17:05:20.199Z,25.58
2022-08-25T17:08:08.298Z,25.14
2022-08-25T17:10:39.441Z,25.60
2022-08-25T17:13:07.644Z,26.31
2022-08-25T17:15:43.182Z,26.51
2022-08-25T17:18:13.641Z,26.42
2022-08-25T17:20:43.311Z,26.83
2022-08-25T17:23:13.086Z,26.59
2022-08-25T17:25:42.976Z,27.25
2022-08-25T17:28:12.835Z,27.19
2022-08-25T17:30:41.956Z,26.58
2022-08-25T17:33:10.060Z,27.32
2022-08-25T17:35:42.861Z,28.02
2022-08-25T17:38:13.152Z,28.64
2022-08-25T17:40:41.835Z,28.47
2022-08-25T17:43:10.036Z,28.65
2022-08-25T17:45:39.511Z,29.35
2022-08-25T17:48:08.645Z,28.98
2022-08-25T17:50:37.402Z,29.20
2022-08-25T17:53:09.801Z,29.39
2022-08-25T17:55:43.087Z,29.51
2022-08-25T17:58:17.853Z,30.10
2022-08-25T18:00:47.082Z,29.99
2022-08-25T18:03:16.153Z,30.36
2022-08-25T18:05:45.148Z,30.44
2022-08-25T18:08:16.037Z,30.38
2022-08-25T18:10:46.032Z,31.09
2022-08-25T18:13:14.441Z,31.32
2022-08-25T18:15:43.537Z,31.58
2022-08-25T18:18:13.227Z,31.99
2022-08-25T18:20:45.972Z,31.87
2022-08-25T18:23:16.657Z,32.01
2022-08-25T18:25:47.587Z,32.38
2022-08-25T18:28:15.853Z,32.42
2022-08-25T18:30:44.093Z,32.39
2022-08-25T18:33:12.487Z,32.78
2022-08-25T18:35:40.406Z,32.89
2022-08-25T18:38:28.095Z,33.26
2022-08-25T18:40:59.822Z,33.15
2022-08-25T18:43:31.258Z,33.82
2022-08-25T18:46:06.830Z,34.15
2022-08-25T18:48:36.258Z,34.41
2022-08-25T18:51:06.259Z,34.42
2022-08-25T18:53:37.288Z,34.58
2022-08-25T18:56:20.143Z,35.24
2022-08-25T18:58:48.480Z,35.27
2022-08-25T19:01:19.276Z,35.46
2022-08-25T19:03:48.406Z,35.84
2022-08-25T19:06:16.482Z,35.75
2022-08-25T19:08:45.194Z,35.91
2022-08-25T19:11:13.518Z,35.91
2022-08-25T19:13:43.482Z,35.44
2022-08-25T19:16:17.778Z,35.99
2022-08-25T19:18:52.258Z,35.98
2022-08-25T19:21:23.619Z,36.38
2022-08-25T19:23:51.588Z,36.16
2022-08-25T19:26:21.028Z,35.86
2022-08-25T19:28:50.877Z,36.19
2022-08-25T19:31:23.685Z,36.45
2022-08-25T19:33:55.333Z,35.97
2022-08-25T19:36:28.326Z,36.37
2022-08-25T19:39:00.112Z,36.49
2022-08-25T19:41:31.215Z,37.03
2022-08-25T19:44:02.737Z,37.24
2022-08-25T19:46:36.089Z,37.38
2022-08-25T19:49:12.381Z,37.75
2022-08-25T19:51:44.645Z,37.70
2022-08-25T19:54:14.549Z,37.93
2022-08-25T19:56:54.568Z,38.15
2022-08-25T19:59:34.236Z,38.59
2022-08-25T20:02:15.544Z,38.46
2022-08-25T20:04:49.600Z,38.44
2022-08-25T20:07:21.217Z,38.56
2022-08-25T20:09:49.565Z,38.45
2022-08-25T20:12:20.140Z,38.89
2022-08-25T20:14:51.650Z,38.98
2022-08-25T20:17:23.782Z,38.80
2022-08-25T20:19:54.232Z,38.35
2022-08-25T20:22:26.118Z,38.59
2022-08-25T20:24:59.166Z,38.72
2022-08-25T20:27:33.730Z,38.32
2022-08-25T20:30:08.473Z,38.61
2022-08-25T20:32:36.800Z,38.72
2022-08-25T20:35:13.415Z,38.99
2022-08-25T20:37:43.981Z,39.23
2022-08-25T20:40:16.521Z,38.84
2022-08-25T20:42:45.333Z,39.26
2022-08-25T20:45:21.800Z,39.31
2022-08-25T20:47:51.283Z,39.35
2022-08-25T20:50:19.690Z,39.55
2022-08-25T20:52:48.599Z,39.56
2022-08-25T20:55:18.894Z,39.81
2022-08-25T20:57:47.809Z,40.19
2022-08-25T21:00:19.593Z,40.18
2022-08-25T21:02:53.398Z,40.21
2022-08-25T21:05:21.540Z,40.28
2022-08-25T21:07:50.729Z,40.61
2022-08-25T21:10:20.737Z,39.83
2022-08-25T21:12:49.416Z,39.72
2022-08-25T21:15:22.693Z,40.01
2022-08-25T21:17:51.142Z,39.48
2022-08-25T21:20:20.663Z,39.43
2022-08-25T21:22:49.943Z,39.52
2022-08-25T21:25:19.230Z,39.41
2022-08-25T21:27:47.946Z,39.24
2022-08-25T21:30:18.360Z,39.65
2022-08-25T21:32:53.168Z,39.38
2022-08-25T21:35:23.038Z,39.61
2022-08-25T21:37:53.279Z,39.59
2022-08-25T21:40:23.152Z,39.85
2022-08-25T21:42:52.189Z,39.78
2022-08-25T21:45:21.866Z,39.60
2022-08-25T21:47:53.474Z,39.95
2022-08-25T21:50:22.166Z,39.97
2022-08-25T21:52:54.563Z,39.79
2022-08-25T21:55:23.094Z,40.02
2022-08-25T21:57:53.449Z,40.18
2022-08-25T22:00:22.626Z,40.37
2022-08-25T22:02:52.883Z,40.59
2022-08-25T22:05:21.202Z,40.75
2022-08-25T22:07:50.285Z,40.91
2022-08-25T22:10:20.698Z,41.07
2022-08-25T22:12:49.253Z,41.12
2022-08-25T22:15:19.024Z,41.24
2022-08-25T22:17:48.223Z,41.44
2022-08-25T22:20:19.555Z,41.68
2022-08-25T22:22:48.363Z,41.69
2022-08-25T22:25:16.367Z,41.95
2022-08-25T22:27:44.283Z,41.88
2022-08-25T22:30:13.686Z,42.18
2022-08-25T22:32:42.049Z,42.34
2022-08-25T22:35:14.166Z,42.80
2022-08-25T22:37:44.690Z,42.68
2022-08-25T22:40:13.845Z,42.86
2022-08-25T22:42:46.066Z,43.47
2022-08-25T22:45:17.476Z,43.55
2022-08-25T22:47:47.051Z,43.44
2022-08-25T22:50:17.309Z,43.04
2022-08-25T22:52:48.130Z,43.08
2022-08-25T22:55:17.746Z,43.35
2022-08-25T22:57:50.080Z,43.14
2022-08-25T23:00:22.872Z,43.35
2022-08-25T23:02:53.183Z,43.48
2022-08-25T23:05:21.541Z,43.54
2022-08-25T23:07:51.877Z,43.78
2022-08-25T23:10:20.785Z,43.77
2022-08-25T23:12:48.723Z,44.24
2022-08-25T23:15:16.752Z,44.61
2022-08-25T23:17:45.810Z,44.49
2022-08-25T23:20:32.475Z,44.94
2022-08-25T23:23:02.728Z,45.57
2022-08-25T23:25:32.116Z,45.55
2022-08-25T23:28:03.662Z,45.67
2022-08-25T23:30:31.820Z,46.19
2022-08-25T23:33:02.635Z,46.41
2022-08-25T23:35:30.806Z,47.00
2022-08-25T23:38:01.734Z,47.46
2022-08-25T23:40:29.984Z,47.48
2022-08-25T23:43:02.074Z,47.60
2022-08-25T23:45:30.150Z,48.50
2022-08-25T23:47:58.128Z,48.66
2022-08-25T23:50:26.313Z,48.63
2022-08-25T23:52:54.289Z,49.34
2022-08-25T23:55:23.697Z,49.75
2022-08-25T23:57:52.790Z,49.65
